La Coruña, España

9:57 PM CET en Diciembre 19, 2014 (GMT +0100)
Rosales | Change Station
CLOSE
Current Station
Estación meteorológica personal
Location: Corua, CORUA
Altura: 328 ft
Estaciones meteorológicas cercanas

Alt 328 ft 43.35 °N, 8.46 °W | Updated 1 second ago

Mostly Cloudy
Muy nublado
52.0 ° F
Sensación térmica 52.0 ° F
N
3.0
Viento Variable Viento desde SE
Gusts 6.0 mph

Hoy
Alta -- | Baja -- ° F
--% Posibilidad de precipitaciones
Ayer
Alta -- | Baja -- ° F
Precip. -- pul
9:01 AM 5:59 PM
Creciente menguante, 6% visible
Presión 30.54 pul
Visibilidad 5.0 Millas
Nubes Baja 1200 ft
Muy nublado 1900 ft
Punto de rocío 50 ° F
Humedad 93%
Precipitaciones 0.00 pul
Espesor de la nieve No disponible.
UV 0.0 de una escala de 12
Polen No disponible.
Calidad del aire No disponible.
Flu Activity No disponible.
METAR LECO 192030Z 16005KT 110V180 8000 FEW012 BKN019 11/10 Q1034 TEMPO 3000 DZ BKN012

More Conditions Fewer Conditions

Presión 30.54 pul
Visibilidad 5.0 Millas
Nubes Baja 1200 ft
Muy nublado 1900 ft
Punto de rocío 50 ° F
Humedad 93%
Precipitaciones 0.00 pul
Espesor de la nieve No disponible.
UV 0.0 de una escala de 12
Polen No disponible.
Calidad del aire No disponible.
Flu Activity No disponible.
METAR LECO 192030Z 16005KT 110V180 8000 FEW012 BKN019 11/10 Q1034 TEMPO 3000 DZ BKN012

More Conditions Fewer Conditions

10-Day Weather Forecast

Almanac

Astronomía

Dec. 19, 2014 Salida Puesta
Hora real
Crepúsculo civil
Crepúsculo náutico
Crepúsculo astronómico
Luna
Horas de luz
Horas de luz
Tomorrow will be .
, % of the Moon is Illuminated

Extremos de hoy

Máximos del país Bajas del país

Community

WunderPhotos

Upload Photos

1,779,048 ¡fotos cargadas!

WunderBlogs® & News

Nearby

Calidad del aire

  Calidad del aire Índice AQ Contaminante
Not available.

Grosos de nieve

Estación Profundido Altura

Actividad de terremotos

Ciudad Distance Mag. Tiempo y dato
Magnitud mínima muestra es 2,5.

Temperaturas de aguas costeras

Lugar Temperatura

Estaciones meteorológicas cercanas